Time;durP1;ratioP1;P1;durP2;ratioP2;P2;SDS_P1;SDS_P2;PMS_P1;PMS_P2;Temp;Humidity;BMP_temperature;BMP_pressure;BME280_temperature;BME280_humidity;BME280_pressure;Samples;Min_cycle;Max_cycle;Signal;HPM_P1;HPM_P2
2022/05/08 00:02:17;;;;;;;12.65;11.55;;;22.20;83.80;;;;;;5904014;29;90170;-66
2022/05/08 00:05:19;;;;;;;12.43;11.32;;;22.20;83.70;;;;;;5902442;29;89084;-67
2022/05/08 00:08:21;;;;;;;12.70;11.55;;;22.10;83.70;;;;;;5908523;29;88681;-66
2022/05/08 00:11:23;;;;;;;13.20;11.90;;;22.10;83.70;;;;;;5919538;29;89131;-67
2022/05/08 00:14:27;;;;;;;12.40;11.40;;;22.20;83.80;;;;;;5919877;29;89618;-67
2022/05/08 00:17:34;;;;;;;12.98;11.85;;;22.10;83.80;;;;;;5918361;29;89421;-66
2022/05/08 00:20:36;;;;;;;12.52;11.40;;;22.10;83.70;;;;;;5905392;29;89589;-67
2022/05/08 00:23:37;;;;;;;12.55;11.50;;;22.10;83.70;;;;;;5903382;29;88727;-67
2022/05/08 00:26:39;;;;;;;12.75;11.65;;;22.10;83.60;;;;;;5916980;29;89092;-68
2022/05/08 00:29:43;;;;;;;12.27;11.18;;;22.20;83.70;;;;;;5911119;29;89107;-67
2022/05/08 00:32:45;;;;;;;13.02;11.93;;;22.20;83.70;;;;;;5914107;29;90105;-67
2022/05/08 00:35:47;;;;;;;12.85;11.65;;;22.10;83.60;;;;;;5902125;29;89154;-67
2022/05/08 00:38:49;;;;;;;13.00;11.80;;;22.20;83.70;;;;;;5913492;29;89152;-67
2022/05/08 00:41:51;;;;;;;12.25;11.25;;;22.10;83.60;;;;;;5903422;29;89101;-67
2022/05/08 00:44:54;;;;;;;12.75;11.60;;;22.10;83.60;;;;;;5914250;29;89149;-67
2022/05/08 00:47:56;;;;;;;12.85;11.75;;;22.20;83.70;;;;;;5902743;29;89187;-67
2022/05/08 00:51:00;;;;;;;12.60;11.50;;;22.10;83.70;;;;;;5901920;29;89180;-66
2022/05/08 00:54:03;;;;;;;13.07;11.98;;;22.20;83.70;;;;;;5914255;29;88371;-66
2022/05/08 00:57:07;;;;;;;12.77;11.68;;;22.10;83.80;;;;;;5902369;29;89431;-67
2022/05/08 01:00:11;;;;;;;12.38;11.38;;;22.10;83.70;;;;;;5908710;29;89119;-66
2022/05/08 01:03:14;;;;;;;13.43;12.23;;;22.10;83.70;;;;;;5913009;29;90072;-67
2022/05/08 01:06:17;;;;;;;12.73;11.65;;;22.10;83.70;;;;;;5902149;29;89244;-67
2022/05/08 01:09:19;;;;;;;12.40;11.38;;;22.10;83.60;;;;;;5908998;29;89509;-67
2022/05/08 01:12:24;;;;;;;12.10;11.00;;;22.10;83.60;;;;;;5913404;29;89075;-67
2022/05/08 01:15:28;;;;;;;12.88;11.68;;;22.10;83.60;;;;;;5902596;29;89456;-67
2022/05/08 01:18:29;;;;;;;12.05;11.05;;;22.10;83.50;;;;;;5915448;29;89164;-67
2022/05/08 01:21:38;;;;;;;12.88;11.77;;;22.10;83.60;;;;;;5920701;29;88001;-67
2022/05/08 01:24:40;;;;;;;12.25;11.25;;;22.10;83.60;;;;;;5920896;29;88575;-67
2022/05/08 01:27:42;;;;;;;12.50;11.40;;;22.10;83.60;;;;;;5915156;29;89204;-66
2022/05/08 01:30:46;;;;;;;12.40;11.40;;;22.10;83.60;;;;;;5900742;29;89223;-66
2022/05/08 01:33:48;;;;;;;12.35;11.25;;;22.10;83.60;;;;;;5907986;29;90358;-67
2022/05/08 01:36:51;;;;;;;11.77;10.88;;;22.10;83.70;;;;;;5906174;29;89230;-66
2022/05/08 01:39:53;;;;;;;12.68;11.57;;;22.10;83.70;;;;;;5890750;29;89117;-67
2022/05/08 01:42:55;;;;;;;12.77;11.68;;;22.10;83.70;;;;;;5902072;29;90856;-67
2022/05/08 01:45:57;;;;;;;12.05;11.05;;;22.10;83.70;;;;;;5900873;29;89178;-65
2022/05/08 01:48:58;;;;;;;11.88;10.88;;;22.10;83.60;;;;;;5910261;29;89121;-67
2022/05/08 01:52:02;;;;;;;12.50;11.40;;;22.00;83.60;;;;;;5908532;29;89044;-67
2022/05/08 01:55:04;;;;;;;12.57;11.55;;;22.10;83.60;;;;;;5905291;29;87296;-66
2022/05/08 01:58:06;;;;;;;12.40;11.30;;;22.10;83.50;;;;;;5890133;29;89162;-67
2022/05/08 02:01:10;;;;;;;12.70;11.60;;;22.10;83.50;;;;;;5901560;29;88973;-67
2022/05/08 02:04:15;;;;;;;12.15;11.05;;;22.10;83.40;;;;;;5912700;29;90309;-66
2022/05/08 02:07:18;;;;;;;11.98;10.93;;;22.10;83.40;;;;;;5905226;29;89196;-67
2022/05/08 02:10:21;;;;;;;12.40;11.30;;;22.10;83.50;;;;;;5901245;29;89095;-67
2022/05/08 02:13:23;;;;;;;12.15;11.10;;;22.10;83.40;;;;;;5900587;29;89240;-67
2022/05/08 02:16:25;;;;;;;12.40;11.40;;;22.10;83.50;;;;;;5901300;29;87971;-67
2022/05/08 02:19:27;;;;;;;11.95;10.85;;;22.10;83.50;;;;;;5921014;29;89123;-67
2022/05/08 02:22:30;;;;;;;12.68;11.57;;;22.10;83.50;;;;;;5912858;29;89452;-67
2022/05/08 02:25:32;;;;;;;12.93;11.82;;;22.10;83.60;;;;;;5905605;29;88341;-67
2022/05/08 02:28:34;;;;;;;13.38;12.18;;;22.00;83.50;;;;;;5914372;29;87921;-67
2022/05/08 02:31:36;;;;;;;12.90;11.80;;;22.10;83.60;;;;;;5893204;29;89118;-67
2022/05/08 02:34:38;;;;;;;12.75;11.65;;;22.10;83.70;;;;;;5891704;29;90372;-68
2022/05/08 02:37:42;;;;;;;13.32;12.23;;;22.10;83.60;;;;;;5904481;29;89416;-67
2022/05/08 02:40:44;;;;;;;12.82;11.63;;;22.10;83.60;;;;;;5885100;29;89088;-67
2022/05/08 02:43:46;;;;;;;13.02;11.90;;;22.00;83.50;;;;;;5900450;29;89349;-67
2022/05/08 02:46:48;;;;;;;12.48;11.40;;;22.10;83.50;;;;;;5893073;29;89206;-67
2022/05/08 02:49:50;;;;;;;13.20;12.10;;;22.10;83.50;;;;;;5915908;29;89405;-67
2022/05/08 02:52:53;;;;;;;12.70;11.50;;;22.00;83.40;;;;;;5903798;29;89191;-67
2022/05/08 02:59:15;;;;;;;12.82;11.73;;;22.10;83.50;;;;;;5904352;29;87372;-67
2022/05/08 03:02:17;;;;;;;13.60;12.40;;;22.10;83.50;;;;;;5905055;29;89159;-65
2022/05/08 03:05:19;;;;;;;13.50;12.30;;;22.00;83.50;;;;;;5914765;29;90002;-67
2022/05/08 03:08:22;;;;;;;13.38;12.20;;;22.00;83.40;;;;;;5916111;29;89557;-65
2022/05/08 03:11:28;;;;;;;13.05;11.95;;;22.00;83.40;;;;;;5903198;29;89096;-67
2022/05/08 03:14:30;;;;;;;13.00;11.90;;;22.00;83.50;;;;;;5903725;29;89022;-67
2022/05/08 03:17:32;;;;;;;13.30;12.10;;;22.00;83.50;;;;;;5892364;29;89174;-66
2022/05/08 03:20:34;;;;;;;13.55;12.35;;;22.00;83.50;;;;;;5926199;29;88042;-67
2022/05/08 03:23:38;;;;;;;12.90;11.80;;;22.00;83.50;;;;;;5903990;29;89378;-66
2022/05/08 03:26:40;;;;;;;13.68;12.48;;;22.00;83.50;;;;;;5924045;29;88400;-67
2022/05/08 03:29:42;;;;;;;12.85;11.75;;;22.00;83.50;;;;;;5897789;29;89121;-67
2022/05/08 03:32:44;;;;;;;13.15;11.95;;;22.00;83.40;;;;;;5893543;29;89087;-66
2022/05/08 03:35:46;;;;;;;13.57;12.38;;;22.00;83.30;;;;;;5898221;29;89989;-67
2022/05/08 03:38:49;;;;;;;13.02;11.93;;;22.00;83.30;;;;;;5903658;29;89121;-67
2022/05/08 03:41:51;;;;;;;12.73;11.63;;;22.00;83.30;;;;;;5915230;29;89333;-66
2022/05/08 03:44:54;;;;;;;13.07;11.88;;;22.00;83.30;;;;;;5915557;29;89259;-67
2022/05/08 03:47:59;;;;;;;12.90;11.80;;;22.00;83.30;;;;;;5904299;29;89250;-67
2022/05/08 03:51:01;;;;;;;13.52;12.40;;;22.00;83.30;;;;;;5913533;29;89169;-67
2022/05/08 03:54:08;;;;;;;12.45;11.38;;;22.00;83.30;;;;;;5891283;29;88207;-68
2022/05/08 04:00:30;;;;;;;12.85;11.75;;;22.00;83.30;;;;;;5902988;29;87410;-67
2022/05/08 04:03:32;;;;;;;12.85;11.75;;;22.00;83.40;;;;;;5912684;29;89139;-67
2022/05/08 04:06:34;;;;;;;13.60;12.40;;;22.00;83.40;;;;;;5904519;29;90074;-67
2022/05/08 04:09:37;;;;;;;13.48;12.27;;;22.00;83.50;;;;;;5912896;29;89209;-67
2022/05/08 04:12:39;;;;;;;13.20;12.00;;;22.00;83.40;;;;;;5900332;29;88988;-67
2022/05/08 04:19:01;;;;;;;12.95;11.85;;;22.00;83.30;;;;;;5913908;29;87952;-67
2022/05/08 04:25:20;;;;;;;13.00;11.90;;;22.00;83.30;;;;;;5880641;29;87736;-68
2022/05/08 04:28:22;;;;;;;11.93;10.73;;;22.00;83.30;;;;;;5913698;29;87271;-67
2022/05/08 04:31:24;;;;;;;12.00;10.95;;;22.00;83.30;;;;;;5902133;29;89053;-66
2022/05/08 04:34:26;;;;;;;12.65;11.55;;;22.00;83.30;;;;;;5902620;29;89218;-67
2022/05/08 04:37:28;;;;;;;12.95;11.75;;;21.90;83.20;;;;;;5902027;29;90043;-66
2022/05/08 04:40:31;;;;;;;11.95;10.95;;;22.00;83.30;;;;;;5913845;29;89095;-67
2022/05/08 04:43:33;;;;;;;12.13;11.13;;;22.00;83.30;;;;;;5906158;29;89147;-66
2022/05/08 04:46:35;;;;;;;12.48;11.27;;;22.00;83.30;;;;;;5900586;29;89486;-67
2022/05/08 04:49:37;;;;;;;12.13;11.13;;;22.00;83.40;;;;;;5914670;29;89119;-67
2022/05/08 04:52:39;;;;;;;12.13;11.10;;;22.00;83.40;;;;;;5914428;29;89131;-66
2022/05/08 04:55:43;;;;;;;11.52;10.48;;;21.90;83.30;;;;;;5902252;29;89265;-66
2022/05/08 04:58:45;;;;;;;12.60;11.50;;;21.90;83.30;;;;;;5902712;29;88381;-66
2022/05/08 05:01:47;;;;;;;11.50;10.50;;;21.90;83.30;;;;;;5902083;29;87983;-66
2022/05/08 05:04:49;;;;;;;11.52;10.48;;;21.90;84.40;;;;;;5902152;29;89247;-67
2022/05/08 05:07:51;;;;;;;11.65;10.65;;;21.90;83.40;;;;;;5913211;29;90002;-66
2022/05/08 05:10:54;;;;;;;11.82;10.82;;;21.90;83.30;;;;;;5902089;29;89107;-67
2022/05/08 05:13:56;;;;;;;12.35;11.25;;;21.90;83.30;;;;;;5902016;29;89193;-67
2022/05/08 05:17:00;;;;;;;11.35;10.40;;;21.90;83.30;;;;;;5904737;29;89220;-67
2022/05/08 05:20:02;;;;;;;12.10;11.07;;;21.90;83.20;;;;;;5915014;29;89224;-67
2022/05/08 05:23:05;;;;;;;11.57;10.57;;;22.00;83.30;;;;;;5913587;29;89187;-67
2022/05/08 05:26:08;;;;;;;11.77;10.68;;;22.00;83.30;;;;;;5907457;29;89073;-67
2022/05/08 05:29:10;;;;;;;11.43;10.43;;;22.00;83.30;;;;;;5912444;29;88298;-67
2022/05/08 05:32:12;;;;;;;11.30;10.30;;;21.90;83.30;;;;;;5908909;29;89137;-67
2022/05/08 05:35:14;;;;;;;11.45;10.45;;;21.90;83.30;;;;;;5901413;29;87985;-67
2022/05/08 05:38:16;;;;;;;10.90;10.00;;;22.00;83.40;;;;;;5900790;29;90412;-67
2022/05/08 05:41:19;;;;;;;11.00;10.00;;;21.90;83.40;;;;;;5912832;29;89601;-66
2022/05/08 05:44:21;;;;;;;10.90;9.95;;;21.90;83.40;;;;;;5901315;29;89057;-67
2022/05/08 05:50:42;;;;;;;10.65;9.75;;;21.90;83.50;;;;;;5903059;29;87658;-67
2022/05/08 05:53:44;;;;;;;10.55;9.65;;;21.90;83.40;;;;;;5901805;29;89153;-67
2022/05/08 05:56:48;;;;;;;11.02;10.02;;;21.90;83.50;;;;;;5907685;29;89203;-67
2022/05/08 05:59:50;;;;;;;10.38;9.48;;;21.90;83.40;;;;;;5905930;29;87355;-67
2022/05/08 06:02:52;;;;;;;10.50;9.60;;;21.90;83.30;;;;;;5914199;29;89138;-66
2022/05/08 06:05:54;;;;;;;10.15;9.35;;;22.00;83.40;;;;;;5902373;29;89074;-68
2022/05/08 06:08:56;;;;;;;9.77;8.93;;;22.00;83.40;;;;;;5903650;29;89952;-67
2022/05/08 06:11:59;;;;;;;10.63;9.68;;;21.90;83.30;;;;;;5892272;29;90748;-67
2022/05/08 06:15:02;;;;;;;9.82;9.02;;;21.90;83.30;;;;;;5890453;29;89020;-67
2022/05/08 06:18:04;;;;;;;10.02;9.13;;;21.90;83.40;;;;;;5895175;29;89130;-67
2022/05/08 06:21:06;;;;;;;9.80;9.00;;;21.90;83.40;;;;;;5920343;29;89065;-67
2022/05/08 06:24:08;;;;;;;9.63;8.82;;;21.90;83.30;;;;;;5901579;29;89094;-66
2022/05/08 06:27:12;;;;;;;9.63;8.82;;;21.90;83.50;;;;;;5913800;29;89483;-67
2022/05/08 06:30:14;;;;;;;9.82;9.02;;;21.90;83.40;;;;;;5912639;29;88466;-67
2022/05/08 06:33:16;;;;;;;9.70;8.90;;;21.90;83.50;;;;;;5902194;29;89275;-67
2022/05/08 06:36:18;;;;;;;10.05;9.15;;;21.90;83.50;;;;;;5901201;29;89431;-67
2022/05/08 06:39:21;;;;;;;9.57;8.77;;;21.90;83.50;;;;;;5913080;29;90291;-67
2022/05/08 06:42:24;;;;;;;9.50;8.70;;;21.90;83.50;;;;;;5901361;29;87897;-66
2022/05/08 06:45:26;;;;;;;9.18;8.48;;;21.90;83.50;;;;;;5901330;29;89325;-67
2022/05/08 06:48:28;;;;;;;8.95;8.25;;;21.90;83.40;;;;;;5913530;29;89092;-66
2022/05/08 06:51:30;;;;;;;9.38;8.57;;;21.90;83.40;;;;;;5904712;29;89087;-70
2022/05/08 06:54:32;;;;;;;9.25;8.52;;;21.90;83.40;;;;;;5909094;29;89136;-65
2022/05/08 06:57:35;;;;;;;9.57;8.77;;;21.90;83.30;;;;;;5902060;29;89393;-66
2022/05/08 07:03:56;;;;;;;8.90;8.20;;;21.90;83.50;;;;;;5891388;29;87417;-66
2022/05/08 07:06:58;;;;;;;9.18;8.38;;;21.90;83.40;;;;;;5905749;29;87979;-67
2022/05/08 07:10:00;;;;;;;9.13;8.40;;;21.90;83.50;;;;;;5904390;29;88933;-67
2022/05/08 07:13:26;;;;;;;8.88;8.13;;;21.90;83.50;;;;;;5904796;29;89034;-67
2022/05/08 07:16:28;;;;;;;8.80;8.02;;;21.90;83.50;;;;;;5893334;29;89096;-67
2022/05/08 07:19:30;;;;;;;8.73;8.00;;;21.90;83.50;;;;;;5914594;29;89432;-67
2022/05/08 07:22:33;;;;;;;8.52;7.78;;;21.90;83.50;;;;;;5912157;29;89247;-66
2022/05/08 07:25:35;;;;;;;8.63;7.93;;;21.90;83.50;;;;;;5916642;29;89213;-67
2022/05/08 07:28:38;;;;;;;8.38;7.68;;;21.90;83.50;;;;;;5915029;29;89327;-67
2022/05/08 07:31:42;;;;;;;8.27;7.68;;;21.90;83.50;;;;;;5905643;29;88245;-67
2022/05/08 07:38:00;;;;;;;8.30;7.60;;;21.90;83.50;;;;;;5872636;29;87598;-67
2022/05/08 07:41:02;;;;;;;8.13;7.45;;;21.90;83.40;;;;;;5895334;29;90043;-67
2022/05/08 07:44:06;;;;;;;8.02;7.40;;;21.90;83.30;;;;;;5914241;29;88965;-67
2022/05/08 07:47:08;;;;;;;7.78;7.07;;;21.90;83.30;;;;;;5911389;29;89141;-67
2022/05/08 07:50:10;;;;;;;7.70;7.10;;;21.90;83.30;;;;;;5908996;29;89046;-67
2022/05/08 07:53:13;;;;;;;8.00;7.38;;;21.90;83.40;;;;;;5903816;29;89096;-67
2022/05/08 07:56:15;;;;;;;8.00;7.38;;;21.90;83.40;;;;;;5903418;29;89087;-67
2022/05/08 07:59:18;;;;;;;7.88;7.20;;;21.90;83.40;;;;;;5905467;29;89059;-67
2022/05/08 08:02:20;;;;;;;8.00;7.28;;;21.90;83.50;;;;;;5914168;29;88344;-66
2022/05/08 08:05:22;;;;;;;8.35;7.65;;;21.80;83.40;;;;;;5904459;29;88005;-67
2022/05/08 08:08:25;;;;;;;8.18;7.47;;;21.90;83.50;;;;;;5917330;29;89240;-67
2022/05/08 08:11:27;;;;;;;7.90;7.30;;;21.80;83.30;;;;;;5904647;29;90195;-67
2022/05/08 08:14:30;;;;;;;7.43;6.82;;;21.80;83.30;;;;;;5903874;29;89356;-67
2022/05/08 08:17:32;;;;;;;7.68;6.97;;;21.80;83.40;;;;;;5915095;29;89083;-67
2022/05/08 08:20:34;;;;;;;7.63;6.93;;;21.90;83.50;;;;;;5913519;29;89414;-67
2022/05/08 08:23:36;;;;;;;7.80;7.10;;;21.90;83.40;;;;;;5903634;29;89133;-67
2022/05/08 08:26:40;;;;;;;8.20;7.50;;;21.90;83.40;;;;;;5912969;29;88560;-67
2022/05/08 08:29:43;;;;;;;7.93;7.28;;;21.90;83.30;;;;;;5917538;29;87953;-67
2022/05/08 08:32:47;;;;;;;8.13;7.43;;;21.90;83.30;;;;;;5903758;29;88377;-67
2022/05/08 08:35:49;;;;;;;7.63;7.03;;;21.90;83.30;;;;;;5903051;29;89105;-67
2022/05/08 08:38:51;;;;;;;7.43;6.82;;;21.90;83.30;;;;;;5915025;29;88002;-66
2022/05/08 08:42:01;;;;;;;7.50;6.90;;;21.90;83.30;;;;;;5914207;29;90001;-67
2022/05/08 08:48:29;;;;;;;7.72;7.13;;;21.80;83.30;;;;;;5903135;29;87363;-67
2022/05/08 08:51:31;;;;;;;8.02;7.22;;;21.90;83.40;;;;;;5914898;29;89472;-68
2022/05/08 08:54:35;;;;;;;7.70;7.10;;;21.80;83.30;;;;;;5903017;29;89747;-66
2022/05/08 08:57:37;;;;;;;8.18;7.47;;;21.90;83.40;;;;;;5914140;29;89163;-67
2022/05/08 09:00:40;;;;;;;7.50;6.90;;;21.80;83.30;;;;;;5914876;29;87853;-68
2022/05/08 09:03:42;;;;;;;7.78;7.13;;;21.80;83.40;;;;;;5904338;29;88395;-67
2022/05/08 09:06:46;;;;;;;7.07;6.47;;;21.80;83.50;;;;;;5904158;29;89124;-68
2022/05/08 09:09:48;;;;;;;7.32;6.72;;;21.80;83.50;;;;;;5904481;29;89149;-67
2022/05/08 09:13:07;;;;;;;7.60;6.90;;;21.80;83.50;;;;;;5908894;29;90492;-68
2022/05/08 09:16:10;;;;;;;7.30;6.70;;;21.90;83.50;;;;;;5904976;29;89382;-68
2022/05/08 09:19:12;;;;;;;6.95;6.45;;;21.90;83.40;;;;;;5914317;29;89201;-68
2022/05/08 09:22:16;;;;;;;7.47;6.88;;;21.80;83.30;;;;;;5903521;29;89103;-68
2022/05/08 09:25:18;;;;;;;7.78;7.00;;;21.80;83.30;;;;;;5913758;29;88923;-68
2022/05/08 09:28:22;;;;;;;7.28;6.68;;;21.90;83.40;;;;;;5923606;29;89388;-67
2022/05/08 09:31:25;;;;;;;7.20;6.50;;;21.90;83.40;;;;;;5903756;29;87983;-68
2022/05/08 09:34:27;;;;;;;7.00;6.45;;;21.90;83.50;;;;;;5902739;29;88689;-68
2022/05/08 09:37:29;;;;;;;6.90;6.40;;;21.80;83.50;;;;;;5909206;29;89141;-68
2022/05/08 09:40:31;;;;;;;7.28;6.57;;;21.80;83.50;;;;;;5906973;29;88048;-68
2022/05/08 09:43:35;;;;;;;7.00;6.40;;;21.80;83.50;;;;;;5894217;29;90060;-68
2022/05/08 09:46:39;;;;;;;6.97;6.47;;;21.90;83.50;;;;;;5924222;29;89549;-68
2022/05/08 09:49:41;;;;;;;6.35;5.85;;;21.80;83.50;;;;;;5910415;29;89102;-68
2022/05/08 09:52:46;;;;;;;6.90;6.40;;;21.80;83.50;;;;;;5902103;29;89144;-68
2022/05/08 09:55:48;;;;;;;6.40;5.90;;;21.80;83.50;;;;;;5902189;29;89127;-68
2022/05/08 09:58:50;;;;;;;6.47;5.97;;;21.80;83.50;;;;;;5890930;29;89147;-68
2022/05/08 10:01:53;;;;;;;6.72;6.18;;;21.80;83.50;;;;;;5902120;29;89504;-68
2022/05/08 10:04:55;;;;;;;6.10;5.60;;;21.80;83.40;;;;;;5910054;29;88376;-68
2022/05/08 10:08:00;;;;;;;6.40;5.90;;;21.80;83.20;;;;;;5915362;29;89108;-68
2022/05/08 10:14:27;;;;;;;6.53;5.93;;;21.90;83.30;;;;;;5896974;29;89225;-68
2022/05/08 10:17:30;;;;;;;6.35;5.85;;;21.90;83.20;;;;;;5907913;29;89496;-67
2022/05/08 10:21:03;;;;;;;6.35;5.75;;;21.80;83.30;;;;;;5908254;29;87978;-68
2022/05/08 10:24:27;;;;;;;6.10;5.50;;;21.90;83.30;;;;;;5909604;29;89394;-68
2022/05/08 10:27:31;;;;;;;6.07;5.57;;;21.80;83.30;;;;;;5906346;29;89240;-68
2022/05/08 10:30:33;;;;;;;5.68;5.18;;;21.80;83.30;;;;;;5902124;29;89129;-68
2022/05/08 10:34:09;;;;;;;6.07;5.57;;;21.80;83.40;;;;;;5893757;29;89200;-68
2022/05/08 10:37:28;;;;;;;6.07;5.57;;;21.80;83.40;;;;;;5889603;29;88444;-68
2022/05/08 10:40:35;;;;;;;5.80;5.32;;;21.80;83.50;;;;;;5900999;29;88818;-68
2022/05/08 10:43:37;;;;;;;6.25;5.65;;;21.80;83.50;;;;;;5905432;29;89097;-68
2022/05/08 10:46:39;;;;;;;6.50;5.90;;;21.80;83.50;;;;;;5912683;29;90399;-68
2022/05/08 10:49:42;;;;;;;6.00;5.50;;;21.90;83.50;;;;;;5908506;29;89141;-68
2022/05/08 10:52:45;;;;;;;5.85;5.35;;;21.80;83.40;;;;;;5916553;29;89453;-69
2022/05/08 10:55:47;;;;;;;5.95;5.47;;;21.80;83.80;;;;;;5904444;29;89448;-68
2022/05/08 10:58:55;;;;;;;6.32;5.72;;;21.80;83.40;;;;;;5904717;29;89480;-68
2022/05/08 11:01:57;;;;;;;5.82;5.32;;;21.90;83.50;;;;;;5904884;29;89186;-68
2022/05/08 11:05:00;;;;;;;6.25;5.75;;;21.90;83.60;;;;;;5905219;29;89094;-68
2022/05/08 11:08:04;;;;;;;5.80;5.30;;;21.80;83.60;;;;;;5916039;29;88320;-69
2022/05/08 11:11:12;;;;;;;5.80;5.30;;;21.80;83.60;;;;;;5904854;29;87579;-69
2022/05/08 11:14:24;;;;;;;5.97;5.47;;;21.80;83.70;;;;;;5915129;29;89070;-69
2022/05/08 11:17:26;;;;;;;5.50;5.00;;;21.90;83.70;;;;;;5904249;29;90209;-69
2022/05/08 11:20:29;;;;;;;5.50;5.10;;;21.80;83.70;;;;;;5916109;29;89229;-68
2022/05/08 11:23:33;;;;;;;5.20;4.80;;;21.80;83.70;;;;;;5907383;29;89075;-68
2022/05/08 11:26:36;;;;;;;5.85;5.22;;;21.80;83.70;;;;;;5911091;29;89225;-69
2022/05/08 11:29:38;;;;;;;5.70;5.20;;;21.80;83.70;;;;;;5907152;29;89236;-69
2022/05/08 11:36:11;;;;;;;5.88;5.38;;;21.80;83.50;;;;;;5915333;29;87348;-69
2022/05/08 11:39:15;;;;;;;6.10;5.60;;;21.90;83.60;;;;;;5915038;29;87483;-69
2022/05/08 11:42:17;;;;;;;5.50;5.10;;;21.80;83.50;;;;;;5908337;29;89137;-68
2022/05/08 11:45:19;;;;;;;5.43;5.03;;;21.80;83.50;;;;;;5916276;29;89122;-69
2022/05/08 11:48:21;;;;;;;5.35;4.95;;;21.80;83.50;;;;;;5907918;29;90288;-69
2022/05/08 11:51:24;;;;;;;5.40;5.00;;;21.90;83.60;;;;;;5912086;29;89175;-69
2022/05/08 11:54:32;;;;;;;5.20;4.70;;;21.90;83.60;;;;;;5914497;29;89287;-69
2022/05/08 11:57:42;;;;;;;5.20;4.80;;;21.80;83.60;;;;;;5904221;29;89140;-69
2022/05/08 12:00:44;;;;;;;5.38;4.88;;;21.90;83.70;;;;;;5916201;29;89069;-69
2022/05/08 12:03:46;;;;;;;5.40;5.00;;;21.80;83.60;;;;;;5904095;29;91096;-68
2022/05/08 12:07:03;;;;;;;5.03;4.63;;;21.80;83.90;;;;;;5906392;29;89152;-68
2022/05/08 12:10:06;;;;;;;5.60;5.20;;;21.80;83.60;;;;;;5914931;29;88273;-68
2022/05/08 12:13:08;;;;;;;5.30;4.90;;;21.80;83.70;;;;;;5916224;29;89194;-68
2022/05/08 12:16:16;;;;;;;5.25;4.85;;;21.90;83.60;;;;;;5915233;29;89118;-70
2022/05/08 12:19:19;;;;;;;5.20;4.80;;;21.80;83.50;;;;;;5920066;29;89985;-68
2022/05/08 12:22:25;;;;;;;5.30;4.90;;;21.80;83.60;;;;;;5904324;29;89092;-69
2022/05/08 12:25:28;;;;;;;5.30;4.90;;;21.80;83.40;;;;;;5915580;29;88949;-69
2022/05/08 12:28:43;;;;;;;5.05;4.68;;;21.90;83.50;;;;;;5914003;29;89126;-68
2022/05/08 12:31:45;;;;;;;5.38;4.97;;;21.80;83.50;;;;;;5892833;29;89180;-69
2022/05/08 12:34:48;;;;;;;5.10;4.70;;;21.90;83.50;;;;;;5903205;29;91055;-68
2022/05/08 12:37:52;;;;;;;5.13;4.72;;;21.80;83.40;;;;;;5903699;29;89146;-69
2022/05/08 12:40:54;;;;;;;4.88;4.47;;;21.90;83.50;;;;;;5912176;29;87221;-68
2022/05/08 12:43:56;;;;;;;5.20;4.80;;;21.90;83.50;;;;;;5906977;29;89128;-68
2022/05/08 12:46:58;;;;;;;4.93;4.55;;;21.80;83.50;;;;;;5909125;29;89573;-68
2022/05/08 12:50:00;;;;;;;5.28;4.88;;;21.80;83.60;;;;;;5912792;29;90312;-68
2022/05/08 12:53:03;;;;;;;5.00;4.60;;;21.80;83.50;;;;;;5910626;29;89010;-68
2022/05/08 12:56:06;;;;;;;4.93;4.50;;;21.80;83.50;;;;;;5902772;29;89575;-69
2022/05/08 13:02:27;;;;;;;5.00;4.60;;;21.80;83.50;;;;;;5912206;29;87385;-69
2022/05/08 13:05:29;;;;;;;5.05;4.65;;;21.90;83.50;;;;;;5902769;29;89163;-68
2022/05/08 13:08:32;;;;;;;5.00;4.60;;;21.80;83.40;;;;;;5907112;29;89605;-68
2022/05/08 13:11:35;;;;;;;5.07;4.68;;;21.90;83.50;;;;;;5902429;29;88834;-68
2022/05/08 13:14:37;;;;;;;4.90;4.50;;;21.90;83.40;;;;;;5902670;29;89147;-68
2022/05/08 13:17:39;;;;;;;5.07;4.68;;;21.90;83.50;;;;;;5916556;29;89089;-68
2022/05/08 13:20:42;;;;;;;4.80;4.43;;;21.90;83.50;;;;;;5900239;29;90067;-68
2022/05/08 13:23:46;;;;;;;4.93;4.50;;;21.90;83.50;;;;;;5902612;29;89210;-68
2022/05/08 13:26:48;;;;;;;5.18;4.68;;;21.90;83.60;;;;;;5923882;29;89051;-68
2022/05/08 13:29:49;;;;;;;5.03;4.50;;;21.90;83.60;;;;;;5903500;29;89147;-68
2022/05/08 13:32:51;;;;;;;4.97;4.57;;;21.80;84.40;;;;;;5902161;29;89151;-68
2022/05/08 13:35:54;;;;;;;5.13;4.72;;;21.80;83.60;;;;;;5902360;29;89161;-67
2022/05/08 13:38:57;;;;;;;4.95;4.60;;;21.80;83.60;;;;;;5914218;29;88981;-69
2022/05/08 13:42:00;;;;;;;4.68;4.38;;;21.80;83.60;;;;;;5903048;29;88807;-68
2022/05/08 13:45:02;;;;;;;4.75;4.35;;;21.90;83.60;;;;;;5901744;29;88156;-68
2022/05/08 13:48:04;;;;;;;4.70;4.38;;;21.90;83.60;;;;;;5915751;29;89108;-68
2022/05/08 13:51:07;;;;;;;4.95;4.55;;;21.90;83.60;;;;;;5911494;29;92353;-68
2022/05/08 13:54:10;;;;;;;4.75;4.35;;;21.90;83.50;;;;;;5891586;29;88817;-69
2022/05/08 13:57:13;;;;;;;5.00;4.50;;;21.90;83.50;;;;;;5912120;29;89380;-68
2022/05/08 14:00:16;;;;;;;4.53;4.22;;;21.90;83.50;;;;;;5912269;29;88897;-69
2022/05/08 14:03:20;;;;;;;4.80;4.40;;;21.90;83.40;;;;;;5904642;29;89061;-68
2022/05/08 14:06:22;;;;;;;5.20;4.80;;;21.90;83.50;;;;;;5901240;29;89105;-68
2022/05/08 14:09:25;;;;;;;4.82;4.43;;;21.90;83.50;;;;;;5915489;29;89140;-69
2022/05/08 14:12:27;;;;;;;4.90;4.50;;;21.90;83.60;;;;;;5899403;29;88374;-69
2022/05/08 14:15:31;;;;;;;4.80;4.40;;;21.90;83.60;;;;;;5892465;29;89227;-68
2022/05/08 14:18:33;;;;;;;4.72;4.32;;;21.80;83.60;;;;;;5921418;29;89366;-69
2022/05/08 14:21:35;;;;;;;4.72;4.32;;;21.90;83.70;;;;;;5914707;29;90003;-68
2022/05/08 14:24:38;;;;;;;4.95;4.30;;;21.80;83.60;;;;;;5907317;29;89080;-69
2022/05/08 14:27:41;;;;;;;4.40;4.10;;;21.80;83.70;;;;;;5910543;29;89120;-68
2022/05/08 14:36:01;;;;;;;5.00;4.60;;;21.90;83.80;;;;;;5901510;29;89125;-69
2022/05/08 14:37:24;;;;;;;4.65;4.35;;;21.90;83.70;;;;;;5914325;29;87871;-69
2022/05/08 14:40:29;;;;;;;4.90;4.50;;;21.90;83.60;;;;;;5900109;29;89652;-70
2022/05/08 14:43:31;;;;;;;4.30;3.90;;;21.90;83.70;;;;;;5892198;29;87656;-69
2022/05/08 14:46:33;;;;;;;4.75;4.35;;;21.90;83.70;;;;;;5900741;29;87927;-69
2022/05/08 14:49:36;;;;;;;4.53;4.22;;;21.90;83.70;;;;;;5910010;29;89243;-68
2022/05/08 14:52:38;;;;;;;4.30;4.00;;;21.90;83.80;;;;;;5910937;29;90118;-69
2022/05/08 14:55:43;;;;;;;4.72;4.32;;;21.90;83.80;;;;;;5907907;29;89002;-69
2022/05/08 14:58:45;;;;;;;4.10;3.80;;;21.90;83.80;;;;;;5910121;29;88068;-69
2022/05/08 15:01:47;;;;;;;4.70;4.30;;;21.90;83.80;;;;;;5908842;29;89153;-69
2022/05/08 15:04:49;;;;;;;4.82;4.43;;;21.90;83.80;;;;;;5904970;29;89448;-69
2022/05/08 15:07:51;;;;;;;5.10;4.38;;;21.90;83.90;;;;;;5916580;29;89655;-68
2022/05/08 15:10:54;;;;;;;4.53;4.13;;;21.90;84.00;;;;;;5916242;29;89068;-68
2022/05/08 15:13:56;;;;;;;4.15;3.85;;;21.90;84.00;;;;;;5916457;29;89016;-68
2022/05/08 15:16:58;;;;;;;4.25;3.95;;;21.90;84.00;;;;;;5905854;29;89014;-68
2022/05/08 15:20:00;;;;;;;4.63;4.32;;;21.90;84.00;;;;;;5927526;29;87998;-69
2022/05/08 15:23:03;;;;;;;4.22;3.92;;;21.90;83.90;;;;;;5920021;29;90318;-68
2022/05/08 15:26:07;;;;;;;4.50;4.18;;;21.90;83.80;;;;;;5908672;29;88876;-69
2022/05/08 15:29:09;;;;;;;4.60;4.20;;;21.90;83.90;;;;;;5910221;29;89072;-68
2022/05/08 15:32:11;;;;;;;4.38;3.97;;;21.90;84.00;;;;;;5906961;29;89107;-68
2022/05/08 15:35:14;;;;;;;4.47;4.18;;;21.90;83.90;;;;;;5912909;29;89184;-68
2022/05/08 15:38:16;;;;;;;4.60;4.20;;;21.90;84.00;;;;;;5904655;29;89172;-69
2022/05/08 15:41:20;;;;;;;4.60;4.20;;;21.90;84.00;;;;;;5894024;29;89128;-68
2022/05/08 15:44:22;;;;;;;4.35;4.05;;;21.90;84.10;;;;;;5904459;29;88320;-69
2022/05/08 15:47:24;;;;;;;4.60;4.22;;;21.90;84.10;;;;;;5912794;29;88178;-69
2022/05/08 15:50:26;;;;;;;4.38;4.07;;;21.90;84.10;;;;;;5906774;29;89185;-69
2022/05/08 15:53:27;;;;;;;4.05;3.65;;;21.90;84.20;;;;;;5903767;29;90000;-69
2022/05/08 15:56:31;;;;;;;4.57;4.18;;;21.90;84.20;;;;;;5903789;29;89086;-68
2022/05/08 15:59:33;;;;;;;4.32;4.03;;;21.90;84.20;;;;;;5915631;29;88996;-69
2022/05/08 16:02:36;;;;;;;4.28;3.90;;;21.90;84.20;;;;;;5904437;29;89130;-69
2022/05/08 16:05:38;;;;;;;4.47;4.18;;;21.90;84.20;;;;;;5904986;29;88012;-68
2022/05/08 16:08:40;;;;;;;4.35;4.00;;;21.90;84.10;;;;;;5914126;29;89346;-69
2022/05/08 16:11:43;;;;;;;4.20;3.80;;;21.90;83.90;;;;;;5914790;29;89108;-68
2022/05/08 16:24:45;;;;;;;4.22;3.83;;;21.90;84.00;;;;;;5914929;29;88159;-69
2022/05/08 16:27:49;;;;;;;4.13;3.83;;;21.90;84.00;;;;;;5913091;29;89099;-68
2022/05/08 16:30:51;;;;;;;4.20;3.80;;;21.90;84.00;;;;;;5908585;29;89300;-68
2022/05/08 16:33:53;;;;;;;4.30;4.00;;;21.90;84.10;;;;;;5913672;29;89172;-69
2022/05/08 16:36:55;;;;;;;4.30;4.00;;;21.90;84.10;;;;;;5923217;29;89520;-68